createdAt,value
2019-02-20T00:02:25.538Z,78.93
2019-02-20T00:04:52.212Z,78.81
2019-02-20T00:07:18.941Z,78.78
2019-02-20T00:09:45.787Z,79.01
2019-02-20T00:12:12.481Z,78.99
2019-02-20T00:14:39.277Z,79.08
2019-02-20T00:17:05.995Z,79.17
2019-02-20T00:19:32.802Z,79.19
2019-02-20T00:21:59.530Z,79.27
2019-02-20T00:24:26.305Z,79.42
2019-02-20T00:26:53.142Z,79.62
2019-02-20T00:29:19.910Z,80.08
2019-02-20T00:31:46.703Z,80.16
2019-02-20T00:34:13.344Z,80.48
2019-02-20T00:36:40.026Z,80.10
2019-02-20T00:39:08.692Z,79.87
2019-02-20T00:41:35.280Z,79.72
2019-02-20T00:44:24.391Z,79.78
2019-02-20T00:47:03.384Z,79.85
2019-02-20T00:49:37.053Z,79.98
2019-02-20T00:52:32.492Z,79.92
2019-02-20T00:54:59.228Z,80.21
2019-02-20T00:57:25.969Z,80.27
2019-02-20T00:59:52.737Z,80.18
2019-02-20T01:02:19.576Z,80.10
2019-02-20T01:04:46.276Z,80.03
2019-02-20T01:07:13.103Z,79.92
2019-02-20T01:09:39.875Z,79.97
2019-02-20T01:12:06.739Z,80.08
2019-02-20T01:14:33.443Z,80.17
2019-02-20T01:17:00.241Z,80.21
2019-02-20T01:19:27.053Z,80.12
2019-02-20T01:21:53.772Z,80.08
2019-02-20T01:24:20.590Z,80.16
2019-02-20T01:26:47.298Z,80.62
2019-02-20T01:29:13.974Z,80.38
2019-02-20T01:31:40.693Z,80.18
2019-02-20T01:34:07.383Z,80.07
2019-02-20T01:36:34.074Z,80.23
2019-02-20T01:39:00.764Z,80.29
2019-02-20T01:41:27.405Z,80.31
2019-02-20T01:43:54.116Z,80.31
2019-02-20T01:46:20.952Z,80.27
2019-02-20T01:48:47.567Z,80.29
2019-02-20T01:51:14.358Z,80.47
2019-02-20T01:53:41.058Z,80.54
2019-02-20T01:56:08.835Z,80.50
2019-02-20T01:58:35.544Z,80.50
2019-02-20T02:01:02.326Z,80.50
2019-02-20T02:03:29.110Z,80.59
2019-02-20T02:05:55.820Z,80.52
2019-02-20T02:08:22.570Z,80.46
2019-02-20T02:10:49.237Z,80.62
2019-02-20T02:13:15.971Z,80.62
2019-02-20T02:15:42.658Z,80.72
2019-02-20T02:18:09.377Z,80.87
2019-02-20T02:20:36.201Z,81.11
2019-02-20T02:23:03.020Z,81.22
2019-02-20T02:25:29.779Z,81.23
2019-02-20T02:27:56.464Z,81.19
2019-02-20T02:30:23.215Z,81.26
2019-02-20T02:32:49.779Z,81.32
2019-02-20T02:35:16.372Z,81.42
2019-02-20T02:37:42.923Z,81.25
2019-02-20T02:40:09.600Z,81.45
2019-02-20T02:42:36.275Z,81.70
2019-02-20T02:45:03.033Z,82.14
2019-02-20T02:47:29.812Z,82.29
2019-02-20T02:49:56.385Z,82.37
2019-02-20T02:52:23.083Z,82.49
2019-02-20T02:54:49.756Z,82.21
2019-02-20T02:57:16.409Z,82.01
2019-02-20T02:59:43.156Z,82.11
2019-02-20T03:02:09.808Z,82.02
2019-02-20T03:04:36.489Z,82.19
2019-02-20T03:07:03.180Z,82.52
2019-02-20T03:09:29.814Z,82.44
2019-02-20T03:11:56.470Z,82.47
2019-02-20T03:14:23.084Z,82.23
2019-02-20T03:16:49.738Z,82.31
2019-02-20T03:19:16.445Z,82.37
2019-02-20T03:21:43.093Z,82.24
2019-02-20T03:24:09.940Z,82.22
2019-02-20T03:26:36.510Z,82.14
2019-02-20T03:29:03.149Z,82.08
2019-02-20T03:31:29.900Z,82.03
2019-02-20T03:33:56.721Z,81.99
2019-02-20T03:36:23.670Z,81.94
2019-02-20T03:38:50.313Z,81.85
2019-02-20T03:41:17.007Z,81.79
2019-02-20T03:43:43.645Z,81.82
2019-02-20T03:46:10.345Z,81.95
2019-02-20T03:48:37.011Z,82.39
2019-02-20T03:51:03.694Z,82.45
2019-02-20T03:53:30.394Z,82.55
2019-02-20T03:55:57.170Z,82.59
2019-02-20T03:58:23.773Z,82.40
2019-02-20T04:00:50.453Z,82.18
2019-02-20T04:03:17.229Z,82.05
2019-02-20T04:05:43.757Z,81.76
2019-02-20T04:08:10.560Z,81.72
2019-02-20T04:10:37.214Z,81.84
2019-02-20T04:13:03.989Z,81.84
2019-02-20T04:15:30.842Z,81.77
2019-02-20T04:17:57.567Z,81.71
2019-02-20T04:20:24.328Z,81.55
2019-02-20T04:22:50.879Z,81.45
2019-02-20T04:25:17.463Z,81.40
2019-02-20T04:27:44.123Z,81.41
2019-02-20T04:30:13.359Z,81.45
2019-02-20T04:32:40.055Z,81.65
2019-02-20T04:35:07.423Z,81.53
2019-02-20T04:37:34.103Z,81.55
2019-02-20T04:40:00.843Z,81.61
2019-02-20T04:42:27.673Z,81.77
2019-02-20T04:44:54.354Z,81.85
2019-02-20T04:47:21.147Z,81.93
2019-02-20T04:49:47.934Z,82.00
2019-02-20T04:52:14.791Z,82.08
2019-02-20T04:54:41.371Z,81.99
2019-02-20T04:57:08.049Z,81.95
2019-02-20T04:59:34.813Z,82.02
2019-02-20T05:02:01.691Z,81.79
2019-02-20T05:04:28.447Z,81.72
2019-02-20T05:06:56.297Z,81.75
2019-02-20T05:09:23.056Z,81.83
2019-02-20T05:11:49.739Z,81.99
2019-02-20T05:14:16.344Z,81.98
2019-02-20T05:16:43.083Z,82.08
2019-02-20T05:19:09.883Z,82.26
2019-02-20T05:21:36.518Z,82.20
2019-02-20T05:24:03.212Z,82.13
2019-02-20T05:26:29.889Z,82.18
2019-02-20T05:28:56.617Z,82.15
2019-02-20T05:31:23.252Z,82.20
2019-02-20T05:33:49.937Z,82.60
2019-02-20T05:36:16.725Z,83.09
2019-02-20T05:38:43.419Z,82.88
2019-02-20T05:41:10.218Z,82.75
2019-02-20T05:43:36.727Z,82.76
2019-02-20T05:46:03.480Z,83.09
2019-02-20T05:48:30.176Z,83.45
2019-02-20T05:50:56.930Z,83.75
2019-02-20T05:53:23.660Z,83.85
2019-02-20T05:55:50.271Z,84.14
2019-02-20T05:58:16.956Z,84.60
2019-02-20T06:00:43.508Z,84.69
2019-02-20T06:03:10.403Z,85.08
2019-02-20T06:05:37.046Z,85.17
2019-02-20T06:08:03.702Z,85.43
2019-02-20T06:10:30.370Z,85.42
2019-02-20T06:12:56.954Z,85.34
2019-02-20T06:15:23.727Z,85.25
2019-02-20T06:17:50.287Z,85.34
2019-02-20T06:20:17.089Z,85.45
2019-02-20T06:22:43.651Z,85.61
2019-02-20T06:25:10.580Z,85.77
2019-02-20T06:27:37.243Z,85.87
2019-02-20T06:30:06.429Z,85.94
2019-02-20T06:32:33.179Z,85.77
2019-02-20T06:34:59.955Z,85.63
2019-02-20T06:37:26.531Z,85.81
2019-02-20T06:39:53.239Z,85.91
2019-02-20T06:42:19.946Z,85.84
2019-02-20T06:44:46.593Z,85.67
2019-02-20T06:47:13.355Z,85.62
2019-02-20T06:49:40.064Z,85.47
2019-02-20T06:52:06.860Z,85.60
2019-02-20T06:54:33.554Z,85.64
2019-02-20T06:57:00.219Z,85.64
2019-02-20T06:59:28.269Z,85.38
2019-02-20T07:01:54.930Z,85.33
2019-02-20T07:04:21.810Z,85.12
2019-02-20T07:07:16.939Z,84.85
2019-02-20T07:10:01.807Z,84.73
2019-02-20T07:12:46.007Z,84.47
2019-02-20T07:15:49.828Z,84.13
2019-02-20T07:18:23.779Z,83.66
2019-02-20T07:21:47.655Z,83.49
2019-02-20T07:24:40.493Z,83.26
2019-02-20T07:27:40.221Z,82.79
2019-02-20T07:30:09.301Z,82.71
2019-02-20T07:32:35.881Z,82.87
2019-02-20T07:35:02.595Z,82.73
2019-02-20T07:37:29.223Z,82.30
2019-02-20T07:39:57.419Z,82.57
2019-02-20T07:42:24.462Z,82.20
2019-02-20T07:44:51.128Z,82.16
2019-02-20T07:47:17.819Z,82.17
2019-02-20T07:49:44.360Z,81.89
2019-02-20T07:52:11.046Z,81.66
2019-02-20T07:54:37.895Z,81.65
2019-02-20T07:57:04.685Z,82.14
2019-02-20T07:59:31.449Z,82.30
2019-02-20T08:01:58.120Z,81.92
2019-02-20T08:04:24.930Z,81.46
2019-02-20T08:06:51.587Z,81.42
2019-02-20T08:09:18.250Z,81.42
2019-02-20T08:11:44.989Z,81.28
2019-02-20T08:14:11.704Z,81.49
2019-02-20T08:16:38.379Z,81.71
2019-02-20T08:19:05.020Z,81.55
2019-02-20T08:21:31.780Z,81.71
2019-02-20T08:23:58.422Z,81.71
2019-02-20T08:26:25.120Z,81.31
2019-02-20T08:28:51.785Z,81.65
2019-02-20T08:31:18.434Z,81.46
2019-02-20T08:33:45.081Z,81.26
2019-02-20T08:36:11.797Z,81.25
2019-02-20T08:38:39.528Z,81.13
2019-02-20T08:41:06.324Z,80.58
2019-02-20T08:43:32.862Z,80.80
2019-02-20T08:45:59.531Z,80.53
2019-02-20T08:48:26.595Z,80.38
2019-02-20T08:50:53.622Z,79.95
2019-02-20T08:53:20.294Z,79.91
2019-02-20T08:55:47.084Z,80.26
2019-02-20T08:58:13.779Z,80.23
2019-02-20T09:00:40.555Z,80.48
2019-02-20T09:03:07.170Z,80.38
2019-02-20T09:05:34.279Z,80.22
2019-02-20T09:08:01.089Z,80.53
2019-02-20T09:10:27.761Z,80.15
2019-02-20T09:12:54.361Z,79.92
2019-02-20T09:15:21.042Z,80.53
2019-02-20T09:17:47.710Z,80.20
2019-02-20T09:20:14.460Z,79.45
2019-02-20T09:22:41.120Z,79.39
2019-02-20T09:25:08.649Z,78.77
2019-02-20T09:27:35.413Z,78.48
2019-02-20T09:30:02.136Z,77.74
2019-02-20T09:32:28.772Z,77.33
2019-02-20T09:34:55.424Z,76.82
2019-02-20T09:37:22.133Z,77.29
2019-02-20T09:39:48.809Z,78.35
2019-02-20T09:42:17.529Z,78.25
2019-02-20T09:44:48.105Z,76.59
2019-02-20T09:47:15.241Z,76.51
2019-02-20T09:49:41.891Z,76.01
2019-02-20T09:52:08.683Z,75.70
2019-02-20T09:54:35.422Z,75.70
2019-02-20T09:57:02.009Z,74.25
2019-02-20T09:59:28.780Z,74.23
2019-02-20T10:01:55.599Z,74.07
2019-02-20T10:04:22.236Z,74.35
2019-02-20T10:06:48.876Z,73.55
2019-02-20T10:09:16.309Z,72.83
2019-02-20T10:11:43.178Z,72.15
2019-02-20T10:14:09.920Z,72.60
2019-02-20T10:16:36.597Z,73.71
2019-02-20T10:19:03.352Z,73.45
2019-02-20T10:21:30.012Z,72.31
2019-02-20T10:23:56.698Z,72.23
2019-02-20T10:26:23.387Z,70.29
2019-02-20T10:28:50.162Z,69.38
2019-02-20T10:31:17.805Z,69.07
2019-02-20T10:33:44.469Z,69.37
2019-02-20T10:36:11.102Z,68.79
2019-02-20T10:38:37.758Z,67.86
2019-02-20T10:41:04.535Z,68.16
2019-02-20T10:43:31.091Z,67.47
2019-02-20T10:45:58.817Z,67.27
2019-02-20T10:48:25.654Z,67.47
2019-02-20T10:50:52.327Z,67.26
2019-02-20T10:53:19.018Z,67.20
2019-02-20T10:55:45.676Z,67.95
2019-02-20T10:58:12.681Z,67.39
2019-02-20T11:00:39.264Z,67.45
2019-02-20T11:03:06.095Z,66.85
2019-02-20T11:05:33.400Z,66.68
2019-02-20T11:08:00.161Z,65.57
2019-02-20T11:10:26.833Z,65.09
2019-02-20T11:12:53.516Z,64.96
2019-02-20T11:15:20.295Z,64.36
2019-02-20T11:17:46.962Z,65.59
2019-02-20T11:20:13.930Z,64.23
2019-02-20T11:22:40.631Z,63.02
2019-02-20T11:25:08.066Z,62.12
2019-02-20T11:27:34.666Z,62.64
2019-02-20T11:30:01.328Z,62.46
2019-02-20T11:32:27.924Z,62.03
2019-02-20T11:34:54.679Z,61.09
2019-02-20T11:37:21.466Z,59.81
2019-02-20T11:39:48.251Z,58.92
2019-02-20T11:42:14.937Z,58.45
2019-02-20T11:44:41.728Z,56.88
2019-02-20T11:47:08.470Z,56.12
2019-02-20T11:49:35.020Z,54.83
2019-02-20T11:52:01.591Z,55.49
2019-02-20T11:54:28.281Z,56.32
2019-02-20T11:56:54.956Z,55.47
2019-02-20T11:59:21.703Z,55.50
2019-02-20T12:01:54.314Z,55.28
2019-02-20T12:04:21.024Z,54.94
2019-02-20T12:06:47.810Z,55.59
2019-02-20T12:09:14.723Z,54.88
2019-02-20T12:11:41.387Z,55.35
2019-02-20T12:14:07.964Z,55.06
2019-02-20T12:16:34.639Z,55.21
2019-02-20T12:19:01.367Z,55.36
2019-02-20T12:21:28.172Z,56.19
2019-02-20T12:23:55.054Z,56.14
2019-02-20T12:26:21.912Z,56.54
2019-02-20T12:28:48.692Z,56.82
2019-02-20T12:31:15.437Z,57.34
2019-02-20T12:33:42.106Z,57.94
2019-02-20T12:36:08.872Z,58.80
2019-02-20T12:38:37.185Z,58.41
2019-02-20T12:41:04.009Z,58.48
2019-02-20T12:43:30.686Z,57.70
2019-02-20T12:45:57.356Z,57.64
2019-02-20T12:48:24.098Z,56.88
2019-02-20T12:50:50.696Z,57.03
2019-02-20T12:53:17.446Z,56.25
2019-02-20T12:55:44.204Z,57.11
2019-02-20T12:58:10.872Z,56.55
2019-02-20T13:00:37.627Z,57.27
2019-02-20T13:03:04.518Z,56.72
2019-02-20T13:05:31.270Z,57.73
2019-02-20T13:07:58.069Z,57.61
2019-02-20T13:10:24.711Z,57.76
2019-02-20T13:12:51.287Z,57.89
2019-02-20T13:15:19.180Z,57.00
2019-02-20T13:17:46.097Z,56.59
2019-02-20T13:20:12.790Z,56.52
2019-02-20T13:22:39.486Z,56.49
2019-02-20T13:25:06.490Z,56.29
2019-02-20T13:27:33.168Z,56.54
2019-02-20T13:30:00.264Z,56.58
2019-02-20T13:32:27.097Z,56.35
2019-02-20T13:34:53.929Z,56.70
2019-02-20T13:37:20.599Z,56.88
2019-02-20T13:39:47.275Z,58.68
2019-02-20T13:42:14.407Z,58.46
2019-02-20T13:44:41.065Z,59.73
2019-02-20T13:47:07.860Z,60.67
2019-02-20T13:49:34.421Z,60.47
2019-02-20T13:52:01.113Z,60.81
2019-02-20T13:54:27.777Z,60.20
2019-02-20T13:57:01.779Z,60.46
2019-02-20T13:59:24.911Z,60.06
2019-02-20T14:01:51.974Z,60.03
2019-02-20T14:04:18.703Z,59.77
2019-02-20T14:06:45.514Z,60.84
2019-02-20T14:09:12.154Z,60.18
2019-02-20T14:11:38.940Z,61.48
2019-02-20T14:14:05.905Z,61.33
2019-02-20T14:16:32.621Z,61.47
2019-02-20T14:18:59.313Z,61.47
2019-02-20T14:21:26.978Z,62.51
2019-02-20T14:23:53.646Z,62.06
2019-02-20T14:26:20.374Z,61.93
2019-02-20T14:28:47.060Z,61.65
2019-02-20T14:31:13.847Z,62.31
2019-02-20T14:33:40.529Z,61.62
2019-02-20T14:36:07.232Z,61.58
2019-02-20T14:38:33.888Z,61.98
2019-02-20T14:41:01.085Z,62.25
2019-02-20T14:43:27.825Z,62.21
2019-02-20T14:45:54.512Z,62.34
2019-02-20T14:48:21.435Z,62.12
2019-02-20T14:50:48.097Z,62.20
2019-02-20T14:53:14.907Z,61.98
2019-02-20T14:55:41.608Z,62.06
2019-02-20T14:58:08.330Z,62.57
2019-02-20T15:00:35.086Z,62.56
2019-02-20T15:03:01.847Z,62.79
2019-02-20T15:05:30.431Z,62.72
2019-02-20T15:07:57.343Z,62.84
2019-02-20T15:10:24.045Z,62.72
2019-02-20T15:12:50.880Z,62.71
2019-02-20T15:15:18.974Z,63.20
2019-02-20T15:17:45.968Z,63.58
2019-02-20T15:20:13.014Z,63.60
2019-02-20T15:22:39.694Z,63.75
2019-02-20T15:25:06.586Z,64.10
2019-02-20T15:27:33.138Z,63.78
2019-02-20T15:29:59.987Z,63.72
2019-02-20T15:32:26.769Z,63.68
2019-02-20T15:34:53.535Z,64.12
2019-02-20T15:37:20.213Z,64.15
2019-02-20T15:39:47.316Z,64.55
2019-02-20T15:42:14.082Z,64.55
2019-02-20T15:44:40.747Z,64.80
2019-02-20T15:47:07.720Z,64.93
2019-02-20T15:49:34.623Z,66.03
2019-02-20T15:52:01.251Z,65.66
2019-02-20T15:54:27.935Z,66.15
2019-02-20T15:56:54.712Z,66.43
2019-02-20T15:59:21.379Z,66.74
2019-02-20T16:01:48.445Z,67.36
2019-02-20T16:04:15.108Z,67.65
2019-02-20T16:06:41.879Z,67.99
2019-02-20T16:09:08.564Z,68.30
2019-02-20T16:11:35.149Z,68.52
2019-02-20T16:14:01.975Z,68.51
2019-02-20T16:16:28.632Z,68.65
2019-02-20T16:18:55.322Z,68.80
2019-02-20T16:21:22.258Z,69.05
2019-02-20T16:23:48.992Z,69.37
2019-02-20T16:26:15.582Z,69.81
2019-02-20T16:28:42.815Z,69.89
2019-02-20T16:31:09.506Z,70.05
2019-02-20T16:33:36.236Z,70.29
2019-02-20T16:36:03.052Z,70.45
2019-02-20T16:38:29.859Z,70.73
2019-02-20T16:40:56.944Z,71.10
2019-02-20T16:43:23.792Z,71.10
2019-02-20T16:45:50.517Z,71.38
2019-02-20T16:48:17.400Z,71.57
2019-02-20T16:50:44.052Z,71.86
2019-02-20T16:53:10.843Z,72.13
2019-02-20T16:55:37.612Z,72.20
2019-02-20T16:58:04.384Z,72.36
2019-02-20T17:00:31.404Z,72.54
2019-02-20T17:02:58.215Z,72.73
2019-02-20T17:05:25.054Z,72.97
2019-02-20T17:07:51.901Z,73.00
2019-02-20T17:10:18.725Z,73.12
2019-02-20T17:12:45.623Z,73.45
2019-02-20T17:15:12.398Z,73.47
2019-02-20T17:17:39.318Z,73.60
2019-02-20T17:20:08.215Z,73.73
2019-02-20T17:22:35.075Z,73.62
2019-02-20T17:25:02.060Z,73.85
2019-02-20T17:27:28.943Z,74.02
2019-02-20T17:29:56.762Z,74.19
2019-02-20T17:32:23.600Z,74.30
2019-02-20T17:34:50.140Z,74.50
2019-02-20T17:37:16.819Z,74.55
2019-02-20T17:39:43.682Z,74.61
2019-02-20T17:42:10.876Z,74.76
2019-02-20T17:44:37.871Z,74.82
2019-02-20T17:47:04.531Z,74.98
2019-02-20T17:49:31.230Z,75.20
2019-02-20T17:51:58.057Z,75.08
2019-02-20T17:54:24.961Z,75.17
2019-02-20T17:56:52.191Z,75.30
2019-02-20T17:59:18.987Z,75.25
2019-02-20T18:01:45.828Z,75.35
2019-02-20T18:04:12.494Z,75.43
2019-02-20T18:06:39.313Z,75.58
2019-02-20T18:09:06.097Z,75.54
2019-02-20T18:11:32.923Z,75.63
2019-02-20T18:13:59.679Z,75.99
2019-02-20T18:16:26.382Z,76.09
2019-02-20T18:18:52.999Z,76.46
2019-02-20T18:21:19.721Z,76.55
2019-02-20T18:23:46.653Z,77.02
2019-02-20T18:26:13.335Z,77.17
2019-02-20T18:28:40.235Z,76.97
2019-02-20T18:31:06.779Z,76.82
2019-02-20T18:33:33.562Z,76.83
2019-02-20T18:36:00.110Z,76.78
2019-02-20T18:38:26.871Z,76.83
2019-02-20T18:40:55.258Z,76.64
2019-02-20T18:43:22.081Z,76.67
2019-02-20T18:45:48.851Z,76.75
2019-02-20T18:48:15.493Z,76.72
2019-02-20T18:50:42.134Z,76.81
2019-02-20T18:53:08.903Z,76.78
2019-02-20T18:55:35.811Z,76.81
2019-02-20T18:58:02.604Z,76.91
2019-02-20T19:00:29.325Z,77.07
2019-02-20T19:02:56.124Z,76.83
2019-02-20T19:05:22.986Z,76.96
2019-02-20T19:07:49.697Z,77.14
2019-02-20T19:10:26.275Z,77.24
2019-02-20T19:13:34.864Z,77.47
2019-02-20T19:16:39.625Z,77.81
2019-02-20T19:19:39.079Z,77.48
2019-02-20T19:22:57.030Z,77.56
2019-02-20T19:26:01.698Z,77.83
2019-02-20T19:28:47.330Z,78.06
2019-02-20T19:31:33.496Z,78.03
2019-02-20T19:34:25.170Z,78.29
2019-02-20T19:37:42.155Z,80.23
2019-02-20T19:40:51.935Z,80.74
2019-02-20T19:43:49.746Z,80.31
2019-02-20T19:46:45.889Z,79.96
2019-02-20T19:50:09.589Z,79.54
2019-02-20T19:52:49.541Z,79.41
2019-02-20T19:55:43.911Z,79.66
2019-02-20T19:58:33.254Z,79.87
2019-02-20T20:01:54.068Z,79.62
2019-02-20T20:04:52.298Z,79.65
2019-02-20T20:08:25.256Z,79.86
2019-02-20T20:11:45.845Z,79.63
2019-02-20T20:14:30.817Z,79.80
2019-02-20T20:17:36.012Z,79.87
2019-02-20T20:20:14.412Z,79.97
2019-02-20T20:23:32.524Z,80.52
2019-02-20T20:26:47.437Z,80.18
2019-02-20T20:30:04.066Z,80.21
2019-02-20T20:32:52.557Z,80.11
2019-02-20T20:35:51.731Z,80.24
2019-02-20T20:38:47.933Z,80.28
2019-02-20T20:41:45.206Z,80.64
2019-02-20T20:44:37.997Z,81.84
2019-02-20T20:47:37.125Z,81.82
2019-02-20T20:50:18.442Z,81.15
2019-02-20T20:53:42.294Z,80.99
2019-02-20T20:56:39.007Z,80.51
2019-02-20T20:59:21.156Z,80.28
2019-02-20T21:01:55.465Z,80.39
2019-02-20T21:05:01.261Z,80.35
2019-02-20T21:07:56.956Z,80.16
2019-02-20T21:11:17.504Z,80.29
2019-02-20T21:14:25.524Z,80.11
2019-02-20T21:17:50.843Z,80.42
2019-02-20T21:21:09.860Z,80.48
2019-02-20T21:24:15.782Z,80.40
2019-02-20T21:27:25.270Z,80.42
2019-02-20T21:31:01.680Z,80.48
2019-02-20T21:33:54.896Z,80.45
2019-02-20T21:37:15.701Z,80.66
2019-02-20T21:40:05.806Z,80.60
2019-02-20T21:43:10.693Z,80.89
2019-02-20T21:46:25.783Z,81.40
2019-02-20T21:49:40.536Z,81.68
2019-02-20T21:52:54.381Z,81.98
2019-02-20T21:56:00.199Z,82.25
2019-02-20T21:59:11.228Z,81.76
2019-02-20T22:02:04.043Z,81.45
2019-02-20T22:04:47.057Z,81.24
2019-02-20T22:07:58.939Z,81.50
2019-02-20T22:11:08.267Z,81.47
2019-02-20T22:14:00.708Z,81.41
2019-02-20T22:17:02.179Z,81.37
2019-02-20T22:19:52.243Z,81.25
2019-02-20T22:23:16.170Z,81.31
2019-02-20T22:26:02.248Z,81.20
2019-02-20T22:29:11.351Z,81.05
2019-02-20T22:32:35.462Z,81.07
2019-02-20T22:35:53.647Z,81.22
2019-02-20T22:38:48.281Z,81.33
2019-02-20T22:42:05.392Z,81.41
2019-02-20T22:45:16.792Z,81.26
2019-02-20T22:48:25.273Z,81.12
2019-02-20T22:51:44.015Z,81.07
2019-02-20T22:54:42.980Z,81.04
2019-02-20T22:57:54.746Z,81.18
2019-02-20T23:00:57.668Z,81.05
2019-02-20T23:03:33.002Z,81.11
2019-02-20T23:06:28.297Z,81.06
2019-02-20T23:09:25.806Z,81.02
2019-02-20T23:12:31.092Z,80.98
2019-02-20T23:14:57.883Z,81.03
2019-02-20T23:17:27.000Z,81.20
2019-02-20T23:19:53.443Z,81.20
2019-02-20T23:22:20.204Z,81.09
2019-02-20T23:24:46.876Z,81.16
2019-02-20T23:27:13.684Z,81.21
2019-02-20T23:29:40.488Z,80.99
2019-02-20T23:32:07.146Z,80.94
2019-02-20T23:34:33.860Z,81.15
2019-02-20T23:37:00.656Z,81.60
2019-02-20T23:39:27.421Z,81.66
2019-02-20T23:41:54.184Z,81.60
2019-02-20T23:44:20.727Z,81.29
2019-02-20T23:46:47.333Z,81.17
2019-02-20T23:49:14.051Z,81.12
2019-02-20T23:51:40.835Z,81.17
2019-02-20T23:54:07.594Z,81.19
2019-02-20T23:56:34.439Z,81.36
2019-02-20T23:59:01.126Z,81.48
